This is the latest recevied weather packets stored in our database for station/object N5XJB. If no packets are shown the sender has not sent any weather packets the latest 10 day(s).
| Time | Temp. | Humidity | Pressure | Rain* | Wind** | Luminosity | Snow |
|---|---|---|---|---|---|---|---|
| 1777776649 | 18.33° C | 76% | 1021 hPa | 0 mm | - | 0 W/m² | - |
| 1777776345 | 18.33° C | 74% | 1021.3 hPa | 0 mm | - | 0 W/m² | - |
| 1777776043 | 18.33° C | 73% | 1021 hPa | 0 mm | - | 0 W/m² | - |
| 1777775739 | 18.33° C | 73% | 1021.3 hPa | 0 mm | - | 0 W/m² | - |
| 1777775437 | 18.33° C | 73% | 1021 hPa | 0 mm | - | 0 W/m² | - |
| 1777775132 | 18.33° C | 72% | 1021 hPa | 0 mm | - | 0 W/m² | - |
| 1777774827 | 18.33° C | 71% | 1020.6 hPa | 0 mm | - | 0 W/m² | - |
| 1777774524 | 18.33° C | 72% | 1021 hPa | 0 mm | - | 0 W/m² | - |
| 1777774221 | 18.89° C | 70% | 1021 hPa | 0 mm | - | 0 W/m² | - |
| 1777773615 | 18.89° C | 69% | 1021 hPa | 0 mm | - | 0 W/m² | - |
| 1777773312 | 19.44° C | 68% | 1020.6 hPa | 0 mm | - | 0 W/m² | - |
| 1777772100 | 20° C | 63% | 1020.3 hPa | 0 mm | - | 0 W/m² | - |
| 1777769979 | 21.67° C | 56% | 1019.9 hPa | 0 mm | - | 3 W/m² | - |
| 1777769373 | 22.22° C | 52% | 1019.6 hPa | 0 mm | - | 7 W/m² | - |
| 1777767251 | 23.33° C | 47% | 1019.6 hPa | 0 mm | - | 29 W/m² | - |
| 1777766343 | 23.89° C | 47% | 1019.3 hPa | 0 mm | - | 36 W/m² | - |
| 1777759978 | 25.56° C | 42% | 1019.6 hPa | 0 mm | - | 435 W/m² | - |
| 1777757856 | 25.56° C | 45% | 1019.6 hPa | 0 mm | - | 564 W/m² | - |
| 1777757554 | 25.56° C | 42% | 1019.6 hPa | 0 mm | - | 576 W/m² | - |
| 1777755435 | 26.11° C | 41% | 1019.6 hPa | 0 mm | - | 700 W/m² | - |
| 1777755131 | 26.11° C | 42% | 1019.9 hPa | 0 mm | - | 724 W/m² | - |
| 1777754828 | 25.56° C | 43% | 1019.9 hPa | 0 mm | - | 724 W/m² | - |
| 1777754223 | 25.56° C | 44% | 1019.9 hPa | 0 mm | - | 741 W/m² | - |
| 1777753921 | 26.11° C | 43% | 1019.9 hPa | 0 mm | - | 752 W/m² | - |
| 1777753010 | 26.11° C | 43% | 1019.9 hPa | 0 mm | - | 782 W/m² | - |
* Rain latest hour (hover to see other rain measurements)
** Current wind speed in m/s (hover to see current wind gust speed)